Dallas, Texas
Traffic Map
Current Weather Conditions
Dallas, Texas
Scattered Clouds
Scattered Clouds
94°
Feels Like: 98°
Wind Chill: 94° Ceiling: Unl
Heat Index: 98° Visibility: 10mi
Dew Point: 67° Wind: 14mph
Humidity: 41% Direction: 170° (S)
Pressure: 29.87in Gusts: 24mph
Raw Report DataKDAL 022353Z 17012G21KT 10SM FEW065 SCT200 34/19 A2987 RMK AO2 SLP107 T03440194 10361 20328 56013
Traffic Incident Summary
Active as of:
Severity:
Category:
InformationThere was an issue retrieving the traffic information for this location. Please try a different location or try again shortly.
Advertisements
Track Severe Weather on mobile